CAE4 weather

Tsacha Lake Airport
Tsacha Lake, British Columbia, Canada

Public forecast

Using degrees Celsius for public forecast. Weather courtesy of forecast.io.

METAR (pilot weather report)

Report is more than 6 hours old.

Closest report is Bella Coola Airport, 74.4 nm (137.9 km) WSW. Retrieved 2019/08/23 01:00 UTC (12 hours ago):

CYBD 230100Z 24015G23KT 15SM -RA BKN080 OVC100 18/10 A2997 RMK AC6AS2 LAST STFD OBS/NEXT 231300 UTC SLP151 DENSITY ALT 500FT

TAF (pilot weather forecast)

Closest forecast is Quesnel Airport, 83.9 nm (155.4 km) E. Retrieved 2019/08/23 12:42 UTC (16 minutes ago):

TAF CYQZ 231138Z 2312/2324 VRB03KT P6SM -RA OVC090 TEMPO 2312/2316 OVC050 FM231600 16005KT P6SM SCT020 OVC050 TEMPO 2316/2322 P6SM -RA BKN020 OVC040 BECMG 2316/2318 16007KT FM232200 16008KT P6SM BKN060 TEMPO 2322/2324 P6SM -SHRA RMK FCST BASED ON AUTO OBS. NXT FCST BY 231900Z